Aviation Digital Data Service (ADDS)

Output produced by TAFs form (1423 UTC 27 January 2015)
found at http://aviationweather.gov/adds/tafs/
 
KABQ 271128Z 2712/2812 02006KT P6SM BKN200 
     FM271700 VRB06KT P6SM SCT050 BKN100 
     FM280200 36006KT P6SM SCT060 SCT100